createdAt,value
2023-05-08T00:01:04.284Z,14.44
2023-05-08T00:03:32.791Z,14.52
2023-05-08T00:06:35.722Z,14.53
2023-05-08T00:09:04.222Z,14.54
2023-05-08T00:11:57.356Z,14.46
2023-05-08T00:14:26.037Z,14.46
2023-05-08T00:16:54.334Z,14.38
2023-05-08T00:19:22.595Z,14.46
2023-05-08T00:21:52.488Z,14.51
2023-05-08T00:24:20.722Z,14.40
2023-05-08T00:26:48.942Z,14.36
2023-05-08T00:29:17.588Z,13.28
2023-05-08T00:31:45.914Z,14.43
2023-05-08T00:34:15.370Z,13.77
2023-05-08T00:36:43.599Z,14.42
2023-05-08T00:39:13.176Z,14.39
2023-05-08T00:41:41.413Z,14.33
2023-05-08T00:44:09.646Z,14.47
2023-05-08T00:46:38.264Z,14.39
2023-05-08T00:49:07.715Z,14.29
2023-05-08T00:51:36.166Z,14.33
2023-05-08T00:54:05.032Z,14.31
2023-05-08T00:56:37.118Z,14.36
2023-05-08T00:59:10.026Z,14.36
2023-05-08T01:01:39.703Z,14.32
2023-05-08T01:04:08.810Z,14.32
2023-05-08T01:06:37.745Z,14.23
2023-05-08T01:09:06.741Z,14.25
2023-05-08T01:11:49.065Z,14.02
2023-05-08T01:14:22.516Z,14.27
2023-05-08T01:17:01.485Z,14.22
2023-05-08T01:19:54.153Z,14.19
2023-05-08T01:22:55.637Z,13.99
2023-05-08T01:26:02.940Z,14.16
2023-05-08T01:29:01.224Z,13.62
2023-05-08T01:31:48.780Z,14.05
2023-05-08T01:34:25.547Z,13.42
2023-05-08T01:37:02.821Z,14.14
2023-05-08T01:39:43.320Z,14.11
2023-05-08T01:42:21.236Z,14.13
2023-05-08T01:45:06.527Z,13.99
2023-05-08T01:47:38.298Z,14.00
2023-05-08T01:50:16.427Z,13.95
2023-05-08T01:52:50.471Z,14.05
2023-05-08T01:55:25.912Z,13.96
2023-05-08T01:57:57.551Z,13.95
2023-05-08T02:00:28.557Z,14.00
2023-05-08T02:03:02.297Z,13.88
2023-05-08T02:05:33.309Z,13.87
2023-05-08T02:08:03.428Z,13.89
2023-05-08T02:10:32.738Z,12.77
2023-05-08T02:13:02.706Z,13.76
2023-05-08T02:15:36.006Z,13.70
2023-05-08T02:18:06.828Z,13.68
2023-05-08T02:20:36.893Z,13.77
2023-05-08T02:23:05.786Z,13.68
2023-05-08T02:25:34.557Z,13.71
2023-05-08T02:28:03.575Z,13.63
2023-05-08T02:30:32.389Z,13.65
2023-05-08T02:33:04.095Z,13.23
2023-05-08T02:35:33.181Z,13.70
2023-05-08T02:38:04.479Z,13.81
2023-05-08T02:40:33.766Z,13.68
2023-05-08T02:43:02.131Z,13.76
2023-05-08T02:45:40.119Z,13.66
2023-05-08T02:48:15.496Z,13.57
2023-05-08T02:50:55.806Z,13.67
2023-05-08T02:53:34.060Z,13.72
2023-05-08T02:56:09.977Z,13.67
2023-05-08T02:58:44.500Z,13.55
2023-05-08T03:01:27.135Z,13.57
2023-05-08T03:04:03.859Z,13.52
2023-05-08T03:06:38.376Z,13.63
2023-05-08T03:09:13.562Z,13.58
2023-05-08T03:11:45.099Z,13.55
2023-05-08T03:14:17.364Z,13.60
2023-05-08T03:16:49.068Z,13.60
2023-05-08T03:19:24.285Z,13.38
2023-05-08T03:21:54.460Z,13.05
2023-05-08T03:24:26.048Z,13.35
2023-05-08T03:26:54.403Z,13.49
2023-05-08T03:29:25.157Z,13.57
2023-05-08T03:31:54.760Z,13.45
2023-05-08T03:34:24.359Z,13.48
2023-05-08T03:36:53.159Z,13.15
2023-05-08T03:39:22.813Z,13.43
2023-05-08T03:41:52.096Z,13.47
2023-05-08T03:44:21.105Z,13.42
2023-05-08T03:46:51.053Z,13.52
2023-05-08T03:49:21.222Z,12.35
2023-05-08T03:51:50.119Z,13.42
2023-05-08T03:54:18.280Z,13.37
2023-05-08T03:56:47.918Z,13.48
2023-05-08T03:59:24.190Z,13.47
2023-05-08T04:02:22.634Z,13.41
2023-05-08T04:05:03.724Z,13.48
2023-05-08T04:07:39.389Z,13.37
2023-05-08T04:10:25.973Z,13.47
2023-05-08T04:13:12.717Z,13.33
2023-05-08T04:15:50.172Z,13.48
2023-05-08T04:18:25.313Z,13.48
2023-05-08T04:20:57.144Z,13.26
2023-05-08T04:23:27.203Z,13.38
2023-05-08T04:25:57.796Z,13.43
2023-05-08T04:28:27.570Z,13.50
2023-05-08T04:30:57.852Z,13.49
2023-05-08T04:33:26.620Z,13.50
2023-05-08T04:35:55.448Z,13.37
2023-05-08T04:38:23.897Z,13.41
2023-05-08T04:40:52.133Z,13.59
2023-05-08T04:43:20.363Z,13.53
2023-05-08T04:45:50.128Z,13.48
2023-05-08T04:48:18.999Z,13.38
2023-05-08T04:50:47.553Z,13.31
2023-05-08T04:53:16.013Z,13.24
2023-05-08T04:55:44.229Z,13.19
2023-05-08T04:58:12.734Z,13.13
2023-05-08T05:00:41.569Z,13.03
2023-05-08T05:03:11.738Z,12.92
2023-05-08T05:05:40.133Z,13.08
2023-05-08T05:08:09.855Z,12.94
2023-05-08T05:10:39.934Z,12.95
2023-05-08T05:13:08.353Z,13.03
2023-05-08T05:15:36.689Z,13.11
2023-05-08T05:18:05.255Z,13.04
2023-05-08T05:20:35.202Z,13.10
2023-05-08T05:23:03.427Z,13.04
2023-05-08T05:25:32.337Z,12.94
2023-05-08T05:28:01.563Z,12.26
2023-05-08T05:30:30.564Z,13.04
2023-05-08T05:32:58.863Z,13.12
2023-05-08T05:35:27.304Z,13.06
2023-05-08T05:37:58.709Z,13.22
2023-05-08T05:40:26.967Z,13.16
2023-05-08T05:42:55.146Z,13.20
2023-05-08T05:45:23.389Z,13.00
2023-05-08T05:47:53.958Z,13.05
2023-05-08T05:50:24.132Z,13.13
2023-05-08T05:52:52.767Z,13.15
2023-05-08T05:55:23.461Z,13.05
2023-05-08T05:57:52.099Z,13.05
2023-05-08T06:00:22.438Z,12.92
2023-05-08T06:02:55.531Z,12.82
2023-05-08T06:05:24.210Z,13.13
2023-05-08T06:08:00.614Z,13.14
2023-05-08T06:10:55.483Z,13.07
2023-05-08T06:13:24.128Z,13.19
2023-05-08T06:15:57.018Z,13.17
2023-05-08T06:18:26.201Z,13.35
2023-05-08T06:21:01.824Z,13.30
2023-05-08T06:23:30.132Z,13.28
2023-05-08T06:26:00.298Z,13.22
2023-05-08T06:28:28.475Z,13.33
2023-05-08T06:30:56.686Z,13.37
2023-05-08T06:33:26.795Z,13.38
2023-05-08T06:35:55.344Z,13.53
2023-05-08T06:38:23.508Z,13.29
2023-05-08T06:40:51.737Z,13.37
2023-05-08T06:43:21.725Z,13.51
2023-05-08T06:45:53.959Z,13.50
2023-05-08T06:48:22.132Z,13.49
2023-05-08T06:50:52.764Z,13.41
2023-05-08T06:53:20.969Z,13.43
2023-05-08T06:55:50.182Z,13.43
2023-05-08T06:58:19.705Z,13.58
2023-05-08T07:00:47.886Z,13.47
2023-05-08T07:03:16.500Z,13.55
2023-05-08T07:05:44.701Z,13.67
2023-05-08T07:08:12.864Z,13.55
2023-05-08T07:10:41.345Z,13.63
2023-05-08T07:13:09.574Z,13.63
2023-05-08T07:15:39.895Z,13.22
2023-05-08T07:18:08.197Z,13.73
2023-05-08T07:20:36.943Z,13.86
2023-05-08T07:23:05.479Z,13.99
2023-05-08T07:25:33.734Z,13.95
2023-05-08T07:28:01.944Z,13.96
2023-05-08T07:30:30.108Z,14.06
2023-05-08T07:32:59.618Z,13.94
2023-05-08T07:35:34.820Z,13.96
2023-05-08T07:38:05.441Z,14.08
2023-05-08T07:40:33.813Z,13.99
2023-05-08T07:43:02.351Z,13.92
2023-05-08T07:45:30.607Z,13.87
2023-05-08T07:48:00.598Z,13.91
2023-05-08T07:50:29.182Z,14.00
2023-05-08T07:52:57.322Z,13.95
2023-05-08T07:55:25.816Z,13.84
2023-05-08T07:57:53.993Z,13.94
2023-05-08T08:00:22.564Z,13.91
2023-05-08T08:02:50.985Z,13.87
2023-05-08T08:05:48.086Z,13.86
2023-05-08T08:08:16.533Z,13.88
2023-05-08T08:10:44.957Z,13.85
2023-05-08T08:13:13.596Z,13.96
2023-05-08T08:15:42.015Z,14.01
2023-05-08T08:18:10.462Z,14.40
2023-05-08T08:20:40.216Z,14.05
2023-05-08T08:23:08.410Z,14.07
2023-05-08T08:25:36.686Z,13.96
2023-05-08T08:28:05.181Z,14.09
2023-05-08T08:30:33.365Z,14.16
2023-05-08T08:33:02.377Z,14.14
2023-05-08T08:35:30.762Z,14.00
2023-05-08T08:38:00.287Z,14.22
2023-05-08T08:40:28.781Z,14.24
2023-05-08T08:42:57.491Z,14.28
2023-05-08T08:45:25.870Z,14.38
2023-05-08T08:47:54.459Z,14.35
2023-05-08T08:50:26.083Z,14.17
2023-05-08T08:53:08.880Z,14.19
2023-05-08T08:55:41.939Z,14.23
2023-05-08T08:58:19.688Z,14.24
2023-05-08T09:00:49.228Z,14.17
2023-05-08T09:03:17.853Z,14.24
2023-05-08T09:05:46.891Z,14.22
2023-05-08T09:08:16.493Z,14.31
2023-05-08T09:10:44.712Z,14.35
2023-05-08T09:13:13.174Z,14.21
2023-05-08T09:15:41.484Z,14.42
2023-05-08T09:18:09.744Z,14.36
2023-05-08T09:20:38.031Z,14.41
2023-05-08T09:23:08.624Z,14.39
2023-05-08T09:25:49.625Z,14.46
2023-05-08T09:28:19.102Z,14.42
2023-05-08T09:30:52.354Z,14.36
2023-05-08T09:33:21.780Z,13.83
2023-05-08T09:35:50.478Z,14.43
2023-05-08T09:38:44.049Z,14.49
2023-05-08T09:41:16.556Z,14.58
2023-05-08T09:43:46.186Z,14.49
2023-05-08T09:46:26.421Z,14.50
2023-05-08T09:48:57.237Z,14.67
2023-05-08T09:51:26.669Z,14.72
2023-05-08T09:53:56.109Z,14.66
2023-05-08T09:56:36.506Z,14.79
2023-05-08T09:59:06.693Z,14.61
2023-05-08T10:01:45.432Z,14.66
2023-05-08T10:04:17.692Z,14.56
2023-05-08T10:06:58.645Z,14.58
2023-05-08T10:09:32.828Z,14.55
2023-05-08T10:12:38.062Z,14.79
2023-05-08T10:15:08.397Z,14.56
2023-05-08T10:17:46.006Z,14.67
2023-05-08T10:20:20.010Z,14.74
2023-05-08T10:22:50.700Z,14.79
2023-05-08T10:25:20.419Z,14.80
2023-05-08T10:28:08.314Z,14.81
2023-05-08T10:30:42.677Z,14.81
2023-05-08T10:33:12.261Z,14.66
2023-05-08T10:35:40.988Z,14.60
2023-05-08T10:38:10.264Z,14.57
2023-05-08T10:40:39.413Z,14.56
2023-05-08T10:43:11.124Z,14.63
2023-05-08T10:45:39.915Z,14.59
2023-05-08T10:48:21.332Z,14.80
2023-05-08T10:51:02.359Z,14.23
2023-05-08T10:53:40.834Z,14.88
2023-05-08T10:56:09.595Z,14.88
2023-05-08T10:58:40.363Z,14.94
2023-05-08T11:01:18.557Z,14.80
2023-05-08T11:03:51.285Z,14.98
2023-05-08T11:06:45.256Z,15.00
2023-05-08T11:09:21.789Z,14.09
2023-05-08T11:12:04.116Z,15.00
2023-05-08T11:14:36.053Z,14.94
2023-05-08T11:17:09.247Z,15.02
2023-05-08T11:19:39.327Z,14.75
2023-05-08T11:22:32.902Z,14.64
2023-05-08T11:25:05.254Z,14.57
2023-05-08T11:28:12.465Z,14.48
2023-05-08T11:30:42.032Z,14.49
2023-05-08T11:33:18.456Z,14.60
2023-05-08T11:35:56.371Z,14.55
2023-05-08T11:38:31.426Z,14.15
2023-05-08T11:41:02.965Z,14.60
2023-05-08T11:44:19.574Z,14.84
2023-05-08T11:46:53.995Z,15.01
2023-05-08T11:49:28.971Z,14.99
2023-05-08T11:52:01.170Z,15.08
2023-05-08T11:54:32.132Z,15.19
2023-05-08T11:57:01.817Z,15.27
2023-05-08T11:59:30.234Z,14.74
2023-05-08T12:02:07.659Z,15.25
2023-05-08T12:04:47.060Z,15.52
2023-05-08T12:07:16.466Z,15.46
2023-05-08T12:09:44.730Z,15.46
2023-05-08T12:12:38.345Z,15.62
2023-05-08T12:15:11.715Z,15.81
2023-05-08T12:17:41.873Z,15.92
2023-05-08T12:20:15.920Z,16.04
2023-05-08T12:22:52.826Z,16.09
2023-05-08T12:25:21.662Z,16.14
2023-05-08T12:27:49.913Z,16.36
2023-05-08T12:30:19.092Z,16.41
2023-05-08T12:32:49.855Z,16.36
2023-05-08T12:35:18.201Z,16.34
2023-05-08T12:37:47.110Z,16.44
2023-05-08T12:40:28.120Z,16.49
2023-05-08T12:42:56.392Z,16.34
2023-05-08T12:45:27.919Z,16.48
2023-05-08T12:48:03.618Z,16.42
2023-05-08T12:50:36.677Z,16.38
2023-05-08T12:53:06.263Z,16.43
2023-05-08T12:55:36.952Z,16.37
2023-05-08T12:58:07.737Z,16.23
2023-05-08T13:00:41.431Z,16.58
2023-05-08T13:03:13.720Z,16.54
2023-05-08T13:05:45.147Z,16.63
2023-05-08T13:08:13.482Z,16.87
2023-05-08T13:10:49.964Z,16.95
2023-05-08T13:13:20.478Z,17.07
2023-05-08T13:15:49.847Z,17.25
2023-05-08T13:18:21.645Z,17.32
2023-05-08T13:20:49.842Z,17.65
2023-05-08T13:23:18.042Z,17.42
2023-05-08T13:25:46.400Z,17.36
2023-05-08T13:28:14.646Z,17.35
2023-05-08T13:30:42.945Z,17.11
2023-05-08T13:33:11.241Z,17.10
2023-05-08T13:35:40.953Z,17.14
2023-05-08T13:38:09.111Z,17.06
2023-05-08T13:40:37.325Z,16.98
2023-05-08T13:43:05.646Z,17.26
2023-05-08T13:45:33.869Z,17.46
2023-05-08T13:48:02.680Z,17.54
2023-05-08T13:50:31.072Z,17.36
2023-05-08T13:53:00.796Z,17.32
2023-05-08T13:55:29.035Z,17.49
2023-05-08T13:57:58.770Z,17.33
2023-05-08T14:00:28.269Z,17.22
2023-05-08T14:02:56.773Z,17.09
2023-05-08T14:05:27.186Z,17.16
2023-05-08T14:07:55.855Z,17.24
2023-05-08T14:10:50.623Z,17.11
2023-05-08T14:13:18.974Z,17.36
2023-05-08T14:15:49.573Z,17.57
2023-05-08T14:18:33.956Z,17.74
2023-05-08T14:21:02.167Z,17.59
2023-05-08T14:23:30.391Z,17.73
2023-05-08T14:25:59.941Z,17.75
2023-05-08T14:28:28.114Z,17.85
2023-05-08T14:30:56.421Z,17.81
2023-05-08T14:33:25.143Z,18.08
2023-05-08T14:35:53.334Z,18.04
2023-05-08T14:38:21.468Z,17.96
2023-05-08T14:40:51.081Z,18.05
2023-05-08T14:43:20.745Z,17.88
2023-05-08T14:45:49.108Z,17.92
2023-05-08T14:48:17.352Z,17.97
2023-05-08T14:50:45.536Z,17.96
2023-05-08T14:53:13.956Z,17.96
2023-05-08T14:55:42.587Z,17.97
2023-05-08T14:58:11.178Z,17.89
2023-05-08T15:00:41.362Z,17.86
2023-05-08T15:03:10.008Z,17.55
2023-05-08T15:05:38.369Z,17.52
2023-05-08T15:08:06.868Z,17.50
2023-05-08T15:10:35.044Z,17.69
2023-05-08T15:13:03.567Z,17.60
2023-05-08T15:15:31.904Z,17.56
2023-05-08T15:18:01.490Z,17.72
2023-05-08T15:20:30.145Z,17.49
2023-05-08T15:22:58.362Z,17.48
2023-05-08T15:25:26.713Z,17.35
2023-05-08T15:27:54.893Z,17.36
2023-05-08T15:30:23.471Z,17.28
2023-05-08T15:32:52.725Z,17.33
2023-05-08T15:35:22.368Z,17.26
2023-05-08T15:37:50.568Z,17.30
2023-05-08T15:40:18.853Z,17.19
2023-05-08T15:42:47.011Z,17.17
2023-05-08T15:50:04.933Z,17.11
2023-05-08T15:52:40.541Z,17.11
2023-05-08T15:55:33.376Z,16.88
2023-05-08T15:58:01.606Z,17.07
2023-05-08T16:00:44.124Z,16.91
2023-05-08T16:03:14.562Z,17.10
2023-05-08T16:05:43.175Z,16.96
2023-05-08T16:08:38.688Z,16.98
2023-05-08T16:11:07.265Z,16.99
2023-05-08T16:13:35.485Z,16.87
2023-05-08T16:16:05.157Z,16.83
2023-05-08T16:18:33.603Z,16.53
2023-05-08T16:21:01.800Z,16.71
2023-05-08T16:23:29.926Z,16.70
2023-05-08T16:26:00.462Z,16.65
2023-05-08T16:28:28.782Z,16.70
2023-05-08T16:30:57.453Z,16.73
2023-05-08T16:33:25.618Z,16.64
2023-05-08T16:35:54.020Z,16.62
2023-05-08T16:38:22.278Z,16.69
2023-05-08T16:40:50.629Z,16.60
2023-05-08T16:43:20.147Z,16.61
2023-05-08T16:45:52.119Z,16.56
2023-05-08T16:48:20.304Z,16.46
2023-05-08T16:50:48.567Z,16.50
2023-05-08T16:53:16.749Z,16.37
2023-05-08T16:55:44.904Z,16.45
2023-05-08T16:58:13.115Z,16.48
2023-05-08T17:00:42.662Z,16.46
2023-05-08T17:03:11.078Z,16.51
2023-05-08T17:05:39.659Z,16.47
2023-05-08T17:08:08.032Z,16.38
2023-05-08T17:10:36.270Z,15.92
2023-05-08T17:13:08.946Z,16.33
2023-05-08T17:15:37.144Z,16.25
2023-05-08T17:18:06.889Z,16.12
2023-05-08T17:20:40.679Z,16.09
2023-05-08T17:23:15.041Z,16.22
2023-05-08T17:25:43.620Z,16.26
2023-05-08T17:28:12.047Z,15.83
2023-05-08T17:30:40.272Z,16.18
2023-05-08T17:33:09.908Z,16.24
2023-05-08T17:35:38.232Z,16.27
2023-05-08T17:38:06.440Z,16.19
2023-05-08T17:40:34.612Z,16.15
2023-05-08T17:43:02.836Z,16.28
2023-05-08T17:45:31.080Z,16.54
2023-05-08T17:47:59.357Z,16.60
2023-05-08T17:50:29.360Z,16.58
2023-05-08T17:52:57.621Z,16.53
2023-05-08T17:55:25.999Z,16.47
2023-05-08T17:57:54.465Z,16.37
2023-05-08T18:00:22.941Z,16.33
2023-05-08T18:08:38.744Z,16.24
2023-05-08T18:11:08.429Z,16.20
2023-05-08T18:13:36.627Z,16.10
2023-05-08T18:16:04.800Z,15.96
2023-05-08T18:18:32.975Z,15.99
2023-05-08T18:21:02.539Z,15.85
2023-05-08T18:23:31.158Z,15.89
2023-05-08T18:25:59.417Z,15.84
2023-05-08T18:28:27.869Z,16.32
2023-05-08T18:30:56.110Z,15.81
2023-05-08T18:33:24.355Z,15.83
2023-05-08T18:35:52.760Z,15.72
2023-05-08T18:38:22.764Z,15.75
2023-05-08T18:40:51.310Z,15.67
2023-05-08T18:43:21.389Z,15.56
2023-05-08T18:45:49.988Z,15.52
2023-05-08T18:48:18.190Z,15.62
2023-05-08T18:50:46.319Z,15.60
2023-05-08T18:53:14.813Z,15.48
2023-05-08T18:55:44.323Z,15.53
2023-05-08T18:58:13.638Z,15.58
2023-05-08T19:00:41.909Z,15.43
2023-05-08T19:03:10.180Z,15.50
2023-05-08T19:05:38.474Z,15.42
2023-05-08T19:08:06.981Z,15.54
2023-05-08T19:10:35.182Z,15.38
2023-05-08T19:13:04.786Z,15.25
2023-05-08T19:15:33.030Z,15.30
2023-05-08T19:18:03.073Z,14.27
2023-05-08T19:20:31.368Z,15.13
2023-05-08T19:22:59.510Z,15.12
2023-05-08T19:25:28.073Z,15.04
2023-05-08T19:27:59.942Z,14.98
2023-05-08T19:30:29.468Z,14.99
2023-05-08T19:32:57.716Z,14.93
2023-05-08T19:35:26.325Z,14.41
2023-05-08T19:37:54.535Z,14.82
2023-05-08T19:40:22.718Z,14.92
2023-05-08T19:42:50.907Z,14.87
2023-05-08T19:45:20.390Z,14.90
2023-05-08T19:47:50.246Z,14.84
2023-05-08T19:50:18.890Z,14.78
2023-05-08T19:52:48.546Z,14.77
2023-05-08T19:55:17.600Z,14.79
2023-05-08T19:57:46.161Z,14.74
2023-05-08T20:00:15.363Z,15.56
2023-05-08T20:02:43.861Z,14.56
2023-05-08T20:05:23.092Z,14.83
2023-05-08T20:07:58.259Z,14.79
2023-05-08T20:10:26.772Z,14.79
2023-05-08T20:12:55.023Z,14.81
2023-05-08T20:15:23.203Z,14.68
2023-05-08T20:17:51.426Z,14.78
2023-05-08T20:20:21.739Z,14.75
2023-05-08T20:22:49.922Z,14.75
2023-05-08T20:25:18.109Z,14.80
2023-05-08T20:27:46.378Z,14.63
2023-05-08T20:30:15.070Z,14.59
2023-05-08T20:32:43.416Z,14.64
2023-05-08T20:35:11.847Z,14.61
2023-05-08T20:37:45.879Z,14.53
2023-05-08T20:40:15.184Z,14.35
2023-05-08T20:42:43.808Z,14.41
2023-05-08T20:45:12.692Z,14.36
2023-05-08T20:47:40.993Z,14.29
2023-05-08T20:50:10.083Z,14.32
2023-05-08T20:52:39.959Z,14.36
2023-05-08T20:55:12.260Z,14.35
2023-05-08T20:57:40.873Z,14.30
2023-05-08T21:00:10.550Z,14.20
2023-05-08T21:02:41.325Z,14.30
2023-05-08T21:05:10.426Z,14.40
2023-05-08T21:07:38.960Z,14.04
2023-05-08T21:10:08.575Z,14.28
2023-05-08T21:12:38.792Z,14.19
2023-05-08T21:15:10.497Z,14.22
2023-05-08T21:17:38.718Z,14.19
2023-05-08T21:20:09.787Z,14.23
2023-05-08T21:22:37.996Z,14.13
2023-05-08T21:25:15.789Z,14.24
2023-05-08T21:27:45.495Z,14.20
2023-05-08T21:30:16.461Z,14.12
2023-05-08T21:32:46.243Z,14.06
2023-05-08T21:35:15.696Z,14.01
2023-05-08T21:37:44.153Z,13.99
2023-05-08T21:40:13.373Z,14.05
2023-05-08T21:42:41.653Z,14.03
2023-05-08T21:45:12.880Z,14.14
2023-05-08T21:47:41.236Z,13.88
2023-05-08T21:50:10.873Z,14.01
2023-05-08T21:52:39.103Z,14.03
2023-05-08T21:55:09.295Z,13.61
2023-05-08T21:57:37.521Z,13.89
2023-05-08T22:00:08.941Z,13.82
2023-05-08T22:05:56.519Z,13.88
2023-05-08T22:08:24.726Z,13.77
2023-05-08T22:10:52.974Z,13.66
2023-05-08T22:13:21.226Z,13.67
2023-05-08T22:15:49.549Z,13.65
2023-05-08T22:18:19.156Z,13.49
2023-05-08T22:20:47.438Z,13.55
2023-05-08T22:23:15.820Z,12.75
2023-05-08T22:25:44.900Z,13.38
2023-05-08T22:28:13.477Z,13.29
2023-05-08T22:30:41.739Z,13.02
2023-05-08T22:33:10.572Z,13.12
2023-05-08T22:35:40.192Z,12.99
2023-05-08T22:38:08.844Z,12.78
2023-05-08T22:40:37.225Z,12.75
2023-05-08T22:43:05.542Z,12.66
2023-05-08T22:45:33.816Z,12.60
2023-05-08T22:48:02.211Z,12.54
2023-05-08T22:50:30.489Z,12.36
2023-05-08T22:53:01.190Z,12.37
2023-05-08T22:55:29.399Z,12.36
2023-05-08T22:57:57.685Z,12.32
2023-05-08T23:00:25.993Z,12.33
2023-05-08T23:02:54.272Z,12.25
2023-05-08T23:05:22.893Z,12.24
2023-05-08T23:07:51.103Z,12.35
2023-05-08T23:10:20.764Z,12.39
2023-05-08T23:12:48.942Z,12.27
2023-05-08T23:15:17.197Z,12.20
2023-05-08T23:17:47.655Z,12.44
2023-05-08T23:20:16.300Z,12.38
2023-05-08T23:22:44.472Z,12.36
2023-05-08T23:25:12.855Z,12.48
2023-05-08T23:27:42.692Z,12.54
2023-05-08T23:30:13.192Z,12.40
2023-05-08T23:32:41.645Z,12.51
2023-05-08T23:35:10.561Z,12.64
2023-05-08T23:37:38.892Z,12.58
2023-05-08T23:40:09.669Z,12.77
2023-05-08T23:42:38.184Z,12.79
2023-05-08T23:45:10.962Z,12.74
2023-05-08T23:47:39.319Z,12.82
2023-05-08T23:50:09.007Z,12.59
2023-05-08T23:52:37.177Z,12.80
2023-05-08T23:55:06.461Z,12.77
2023-05-08T23:57:34.730Z,12.82
